Linn Valley, Kansas
Current Conditions -  °F | °C
As of 4:53 PM on Wednesday 17 Dec 2014 (Local Time) from KIXD Reporting Station
Overcast Overcast  
Wind Chill: 30°   Ceiling: 7500
Heat Index: 30°   Visibility: 9mi
Dew Point: 22°   Wind: 3mph
Humidity: 72%   Direction: 120°ESE
Pressure: 30.24"   Gusts: NA
Location:  38.3335°N, 94.7608°W
Report Text: KIXD 172253Z 12003KT 9SM OVC075 M01/M06 A3024 RMK AO2 SLP253 T10111056
Loading
Personal Weather Stations






























Interactive Weather Map New forecast layout! Learn more

10-Day Weather Forecast

Advertisements
Track Severe Weather on mobile